createdAt,value
2023-02-11T00:00:06.125Z,28.53
2023-02-11T00:01:06.828Z,31.32
2023-02-11T00:02:06.345Z,30.12
2023-02-11T00:03:06.256Z,26.72
2023-02-11T00:04:06.216Z,29.36
2023-02-11T00:05:06.243Z,28.64
2023-02-11T00:06:06.259Z,26.34
2023-02-11T00:07:06.279Z,28.27
2023-02-11T00:08:06.304Z,25.01
2023-02-11T00:09:06.341Z,25.01
2023-02-11T00:10:06.361Z,29.90
2023-02-11T00:11:06.451Z,28.25
2023-02-11T00:12:06.463Z,27.86
2023-02-11T00:13:06.432Z,26.99
2023-02-11T00:14:06.453Z,30.00
2023-02-11T00:15:06.488Z,27.69
2023-02-11T00:16:06.497Z,30.22
2023-02-11T00:17:06.517Z,28.43
2023-02-11T00:18:06.545Z,29.76
2023-02-11T00:19:06.570Z,26.24
2023-02-11T00:20:08.238Z,26.83
2023-02-11T00:21:06.611Z,28.18
2023-02-11T00:22:06.653Z,27.24
2023-02-11T00:23:06.658Z,26.95
2023-02-11T00:24:06.675Z,27.79
2023-02-11T00:25:06.755Z,30.27
2023-02-11T00:26:06.716Z,25.64
2023-02-11T00:27:06.734Z,28.54
2023-02-11T00:28:06.798Z,29.43
2023-02-11T00:29:06.783Z,26.25
2023-02-11T00:30:06.812Z,29.13
2023-02-11T00:31:06.924Z,27.39
2023-02-11T00:32:06.844Z,27.57
2023-02-11T00:33:06.876Z,27.96
2023-02-11T00:34:06.894Z,29.82
2023-02-11T00:35:06.915Z,31.23
2023-02-11T00:36:06.938Z,27.07
2023-02-11T00:37:06.968Z,27.80
2023-02-11T00:38:06.990Z,29.66
2023-02-11T00:39:07.002Z,30.16
2023-02-11T00:40:07.048Z,26.90
2023-02-11T00:41:07.048Z,28.02
2023-02-11T00:42:07.140Z,28.57
2023-02-11T00:43:07.094Z,29.14
2023-02-11T00:44:07.119Z,31.01
2023-02-11T00:45:07.145Z,26.40
2023-02-11T00:46:07.196Z,26.90
2023-02-11T00:47:07.218Z,25.91
2023-02-11T00:48:07.320Z,27.81
2023-02-11T00:50:07.842Z,30.90
2023-02-11T00:51:07.327Z,28.12
2023-02-11T00:52:07.331Z,31.95
2023-02-11T00:53:07.376Z,29.04
2023-02-11T00:54:07.391Z,28.28
2023-02-11T00:55:07.418Z,33.79
2023-02-11T00:56:07.442Z,31.02
2023-02-11T00:57:07.472Z,28.84
2023-02-11T00:58:07.509Z,27.08
2023-02-11T01:47:08.916Z,30.22
2023-02-11T01:53:09.107Z,29.63
2023-02-11T01:55:09.165Z,28.38
2023-02-11T01:56:09.193Z,27.63
2023-02-11T01:57:09.232Z,29.47
2023-02-11T01:58:09.261Z,26.51
2023-02-11T01:59:09.310Z,29.77
2023-02-11T02:00:09.326Z,26.88
2023-02-11T02:01:09.349Z,31.29
2023-02-11T02:02:09.374Z,28.07
2023-02-11T02:03:09.414Z,27.41
2023-02-11T02:04:09.467Z,27.98
2023-02-11T02:05:09.489Z,30.26
2023-02-11T02:06:09.514Z,32.76
2023-02-11T02:07:09.552Z,30.69
2023-02-11T02:08:09.574Z,30.42
2023-02-11T02:09:09.614Z,29.45
2023-02-11T02:10:09.651Z,29.52
2023-02-11T02:12:09.701Z,28.63
2023-02-11T02:13:09.742Z,28.73
2023-02-11T02:14:09.777Z,28.64
2023-02-11T02:15:09.818Z,27.70
2023-02-11T02:16:10.192Z,28.29
2023-02-11T02:17:09.870Z,27.86
2023-02-11T02:19:10.920Z,27.27
2023-02-11T02:20:10.029Z,29.98
2023-02-11T02:21:10.000Z,27.89
2023-02-11T02:22:10.036Z,26.16
2023-02-11T02:23:10.069Z,28.42
2023-02-11T02:24:11.998Z,29.24
2023-02-11T02:25:10.107Z,28.89
2023-02-11T02:26:10.116Z,25.11
2023-02-11T02:27:10.144Z,27.62
2023-02-11T02:28:10.228Z,29.21
2023-02-11T02:29:10.169Z,28.64
2023-02-11T02:30:10.186Z,26.95
2023-02-11T02:31:10.341Z,26.98
2023-02-11T02:32:10.222Z,25.69
2023-02-11T02:33:21.852Z,24.36
2023-02-11T02:34:11.270Z,24.72
2023-02-11T02:35:10.282Z,25.93
2023-02-11T02:36:10.297Z,27.04
2023-02-11T02:37:10.330Z,28.70
2023-02-11T02:38:10.342Z,30.95
2023-02-11T02:39:10.353Z,31.94
2023-02-11T02:40:10.369Z,28.12
2023-02-11T02:41:10.383Z,31.17
2023-02-11T02:42:10.404Z,28.60
2023-02-11T04:48:15.431Z,28.48
2023-02-11T04:51:15.167Z,29.44
2023-02-11T04:52:15.213Z,28.94
2023-02-11T04:53:15.270Z,27.42
2023-02-11T04:54:15.296Z,27.83
2023-02-11T04:55:15.342Z,27.44
2023-02-11T04:56:15.393Z,27.13
2023-02-11T04:57:15.434Z,29.28
2023-02-11T04:58:15.481Z,28.65
2023-02-11T05:00:15.591Z,29.82
2023-02-11T05:01:15.667Z,26.40
2023-02-11T05:02:15.672Z,30.50
2023-02-11T05:03:15.712Z,28.01
2023-02-11T05:04:15.844Z,30.76
2023-02-11T05:05:15.801Z,28.34
2023-02-11T05:06:15.852Z,29.58
2023-02-11T05:08:15.947Z,31.69
2023-02-11T05:09:15.981Z,31.44
2023-02-11T08:02:25.199Z,27.61
2023-02-11T08:04:25.524Z,29.26
2023-02-11T08:05:25.238Z,28.53
2023-02-11T08:06:25.325Z,28.44
2023-02-11T08:07:25.355Z,28.12
2023-02-11T08:08:25.426Z,27.22
2023-02-11T08:09:25.481Z,30.78
2023-02-11T08:10:25.512Z,30.36
2023-02-11T08:11:25.575Z,25.99
2023-02-11T08:12:25.632Z,31.76
2023-02-11T08:13:25.668Z,28.01
2023-02-11T08:14:25.731Z,28.57
2023-02-11T08:15:25.778Z,30.55
2023-02-11T08:16:26.579Z,31.55
2023-02-11T08:17:25.894Z,30.58
2023-02-11T08:18:25.941Z,30.75
2023-02-11T08:19:26.014Z,31.03
2023-02-11T08:20:26.144Z,31.40
2023-02-11T08:21:26.113Z,31.16
2023-02-11T08:22:26.166Z,27.56
2023-02-11T08:23:26.294Z,31.31
2023-02-11T08:24:26.270Z,33.16
2023-02-11T08:25:26.316Z,28.40
2023-02-11T08:26:26.386Z,29.04
2023-02-11T08:27:26.439Z,30.29
2023-02-11T08:28:26.513Z,33.40
2023-02-11T08:30:27.632Z,29.91
2023-02-11T08:31:26.814Z,31.29
2023-02-11T08:32:26.683Z,26.18
2023-02-11T08:33:26.739Z,31.90
2023-02-11T08:34:26.788Z,29.65
2023-02-11T08:35:26.846Z,29.62
2023-02-11T08:36:26.897Z,27.31
2023-02-11T08:37:26.942Z,28.81
2023-02-11T08:38:26.996Z,29.32
2023-02-11T08:39:27.049Z,34.19
2023-02-11T08:40:27.108Z,29.72
2023-02-11T08:41:27.160Z,30.78
2023-02-11T08:42:27.211Z,30.08
2023-02-11T08:44:27.310Z,34.63
2023-02-11T08:45:27.372Z,31.97
2023-02-11T08:46:27.502Z,30.91
2023-02-11T12:22:35.568Z,33.28
2023-02-11T12:25:35.151Z,32.52
2023-02-11T12:26:35.189Z,35.45
2023-02-11T12:27:35.213Z,41.20
2023-02-11T12:28:35.310Z,39.36
2023-02-11T12:29:35.288Z,33.63
2023-02-11T12:31:35.480Z,37.47
2023-02-11T12:32:35.393Z,37.08
2023-02-11T12:33:35.427Z,35.56
2023-02-11T12:34:35.463Z,35.79
2023-02-11T12:35:35.520Z,36.45
2023-02-11T12:37:35.569Z,38.20
2023-02-11T12:38:35.609Z,36.03
2023-02-11T12:39:35.654Z,37.34
2023-02-11T12:40:35.694Z,37.07
2023-02-11T12:41:35.733Z,36.03
2023-02-11T12:42:35.760Z,38.32
2023-02-11T12:43:35.828Z,35.20
2023-02-11T12:44:35.834Z,36.85
2023-02-11T12:45:35.917Z,37.71
2023-02-11T12:46:35.911Z,35.01
2023-02-11T12:47:35.949Z,33.88
2023-02-11T12:48:36.008Z,34.16
2023-02-11T12:49:36.023Z,36.35
2023-02-11T12:50:36.059Z,33.72
2023-02-11T12:51:36.092Z,36.41
2023-02-11T12:52:36.126Z,35.84
2023-02-11T12:53:36.186Z,35.75
2023-02-11T12:54:36.212Z,36.50
2023-02-11T12:55:36.239Z,36.87
2023-02-11T12:56:36.277Z,36.00
2023-02-11T12:57:36.336Z,39.26
2023-02-11T12:58:45.032Z,38.60
2023-02-11T13:00:36.372Z,38.67
2023-02-11T13:01:36.482Z,36.65
2023-02-11T13:02:36.480Z,38.20
2023-02-11T13:03:36.408Z,33.15
2023-02-11T13:04:36.419Z,36.53
2023-02-11T13:05:36.442Z,36.22
2023-02-11T13:06:36.450Z,38.37
2023-02-11T13:07:36.452Z,39.15
2023-02-11T13:08:36.463Z,36.72
2023-02-11T13:09:36.477Z,38.29
2023-02-11T13:10:36.494Z,35.85
2023-02-11T13:11:36.502Z,39.83
2023-02-11T13:12:36.508Z,38.98
2023-02-11T13:13:36.526Z,34.38
2023-02-11T13:14:36.524Z,38.41
2023-02-11T13:15:36.611Z,36.62
2023-02-11T13:16:36.817Z,35.62
2023-02-11T13:17:36.580Z,38.12
2023-02-11T13:18:36.617Z,36.97
2023-02-11T13:19:36.656Z,39.92
2023-02-11T13:20:36.680Z,40.84
2023-02-11T13:21:36.724Z,37.72
2023-02-11T13:22:36.756Z,39.00
2023-02-11T13:23:36.792Z,36.79
2023-02-11T13:24:36.839Z,37.22
2023-02-11T13:25:36.873Z,35.84
2023-02-11T13:26:36.903Z,37.27
2023-02-11T13:27:36.953Z,38.96
2023-02-11T13:28:37.150Z,37.57
2023-02-11T13:29:37.021Z,38.97
2023-02-11T13:30:37.151Z,40.31
2023-02-11T13:31:37.282Z,37.15
2023-02-11T13:32:37.159Z,37.62
2023-02-11T13:33:37.215Z,37.43
2023-02-11T13:34:37.257Z,39.13
2023-02-11T13:35:37.303Z,35.79
2023-02-11T13:36:37.355Z,39.82
2023-02-11T13:37:37.402Z,36.12
2023-02-11T13:38:37.438Z,38.65
2023-02-11T13:39:37.487Z,42.33
2023-02-11T13:40:37.558Z,38.93
2023-02-11T13:41:37.586Z,43.37
2023-02-11T13:42:37.620Z,40.37
2023-02-11T13:44:37.710Z,41.48
2023-02-11T13:45:37.857Z,40.86
2023-02-11T13:46:37.789Z,37.16
2023-02-11T13:47:37.834Z,38.78
2023-02-11T13:48:37.878Z,40.04
2023-02-11T13:49:37.937Z,41.09
2023-02-11T13:50:37.983Z,39.23
2023-02-11T13:51:38.029Z,39.53
2023-02-11T13:52:38.077Z,38.97
2023-02-11T13:53:38.125Z,39.33
2023-02-11T13:54:38.182Z,42.09
2023-02-11T13:55:38.229Z,39.29
2023-02-11T17:08:45.153Z,42.26
2023-02-11T17:09:45.194Z,41.57
2023-02-11T17:10:45.235Z,41.75
2023-02-11T17:11:45.260Z,41.36
2023-02-11T17:12:45.306Z,40.51
2023-02-11T17:13:45.350Z,41.26
2023-02-11T17:14:45.389Z,41.84
2023-02-11T17:15:45.422Z,41.24
2023-02-11T17:16:45.504Z,41.35
2023-02-11T17:17:45.564Z,45.35
2023-02-11T17:18:45.555Z,41.61
2023-02-11T17:19:45.579Z,41.86
2023-02-11T17:20:45.685Z,45.01
2023-02-11T17:21:45.676Z,42.97
2023-02-11T17:22:45.697Z,43.43
2023-02-11T17:23:45.743Z,41.81
2023-02-11T17:24:45.784Z,41.42
2023-02-11T17:25:45.820Z,40.75
2023-02-11T17:26:45.929Z,44.32
2023-02-11T17:27:45.903Z,42.49
2023-02-11T17:28:45.942Z,43.42
2023-02-11T17:29:45.995Z,39.58
2023-02-11T17:30:46.082Z,41.81
2023-02-11T17:31:46.085Z,43.69
2023-02-11T17:32:46.115Z,42.30
2023-02-11T17:33:46.146Z,42.86
2023-02-11T17:34:46.184Z,40.55
2023-02-11T17:35:46.229Z,39.95
2023-02-11T17:36:46.268Z,42.29
2023-02-11T17:43:46.541Z,43.98
2023-02-11T17:44:46.584Z,39.70
2023-02-11T17:45:46.698Z,39.93
2023-02-11T17:46:46.674Z,43.58
2023-02-11T17:47:46.702Z,42.01
2023-02-11T17:48:46.740Z,40.36
2023-02-11T17:49:46.786Z,40.53
2023-02-11T17:50:46.825Z,39.83
2023-02-11T17:51:46.878Z,40.92
2023-02-11T17:52:46.917Z,40.99
2023-02-11T17:53:46.954Z,38.60
2023-02-11T17:55:47.046Z,44.45
2023-02-11T17:56:47.088Z,41.05
2023-02-11T21:11:55.155Z,43.79
2023-02-11T21:12:55.194Z,38.63
2023-02-11T21:13:55.255Z,43.23
2023-02-11T21:14:55.289Z,39.64
2023-02-11T21:16:55.367Z,42.22
2023-02-11T21:22:55.640Z,41.32
2023-02-11T21:23:55.695Z,37.85
2023-02-11T21:24:55.723Z,45.26
2023-02-11T21:25:56.152Z,43.58
2023-02-11T21:26:55.810Z,45.15
2023-02-11T21:27:55.927Z,45.61
2023-02-11T21:28:55.906Z,46.89
2023-02-11T21:29:55.949Z,42.16
2023-02-11T21:30:56.113Z,42.48
2023-02-11T21:31:56.165Z,42.97
2023-02-11T21:32:56.083Z,42.18
2023-02-11T21:33:56.135Z,42.84
2023-02-11T21:34:56.176Z,45.89
2023-02-11T21:35:56.616Z,40.14
2023-02-11T21:36:56.254Z,40.41
2023-02-11T21:37:56.302Z,42.59
2023-02-11T21:38:56.344Z,44.06
2023-02-11T21:39:56.394Z,45.27
2023-02-11T21:40:56.468Z,43.19
2023-02-11T21:41:56.476Z,44.07
2023-02-11T21:42:56.533Z,43.75
2023-02-11T21:43:56.584Z,44.78
2023-02-11T21:44:56.618Z,39.19
2023-02-11T21:45:56.875Z,38.67
2023-02-11T21:46:56.786Z,43.01
2023-02-11T21:47:56.749Z,42.46
2023-02-11T21:48:57.282Z,43.66
2023-02-11T21:49:56.828Z,41.38
2023-02-11T21:50:56.872Z,42.32
2023-02-11T21:51:56.916Z,43.47
2023-02-11T21:52:57.049Z,42.42
2023-02-11T21:53:57.006Z,39.29
2023-02-11T21:54:57.042Z,42.84
2023-02-11T21:55:57.160Z,43.63
2023-02-11T21:56:57.139Z,42.17
2023-02-11T21:57:57.780Z,44.13
2023-02-11T21:58:57.266Z,40.34
2023-02-11T21:59:57.269Z,43.60
2023-02-11T22:00:57.434Z,46.27
2023-02-11T22:01:57.355Z,42.10
2023-02-11T22:02:57.518Z,38.52
2023-02-11T22:03:57.449Z,46.54
2023-02-11T22:04:57.583Z,41.31
2023-02-11T22:05:57.718Z,39.51
2023-02-11T22:06:57.584Z,44.30
2023-02-11T22:07:57.623Z,40.75
2023-02-11T22:08:57.662Z,43.17
2023-02-11T22:09:57.711Z,42.13
2023-02-11T22:10:57.758Z,43.77
2023-02-11T22:11:57.802Z,39.51
2023-02-11T22:12:57.850Z,39.25
2023-02-11T22:13:57.988Z,42.11
2023-02-11T22:14:57.960Z,43.77
2023-02-11T22:15:58.130Z,42.19
2023-02-11T22:16:58.035Z,38.49
2023-02-11T22:17:58.127Z,38.38
2023-02-11T22:18:58.117Z,42.92
2023-02-11T22:19:58.240Z,42.01
2023-02-11T22:20:58.201Z,42.69
2023-02-11T22:21:58.248Z,45.58
2023-02-11T22:22:58.296Z,40.74
2023-02-11T22:23:59.318Z,42.28
2023-02-11T22:24:58.397Z,43.91
2023-02-11T22:25:58.482Z,43.54
2023-02-11T22:26:58.488Z,39.09
2023-02-11T22:27:58.584Z,38.66
2023-02-11T22:28:58.593Z,42.34
2023-02-11T22:29:58.637Z,42.75
2023-02-11T22:30:58.707Z,41.89
2023-02-11T22:31:58.811Z,43.68
2023-02-11T22:32:58.765Z,43.21
2023-02-11T22:33:58.816Z,42.93
2023-02-11T22:34:58.866Z,44.13
2023-02-11T22:35:58.916Z,40.78
2023-02-11T22:36:58.966Z,39.36
2023-02-11T22:37:59.016Z,43.94
